^^
TXWeather Station Historical Data
Daily Summary for January 22, 2022 Units:  English    Metric   Both
Daily Weekly Monthly Yearly Custom
  High: Low: Average:
Temperature: 56.0 °F 30.0 °F 41.2 °F
Dew Point: 30.0 °F 22.0 °F 25.9 °F
Humidity: 73% 33% 56%
Wind Speed: 15mph 0mph 5.3mph
Wind Gust: 16mph - -
Wind- - NE
Pressure: 30.6 in 30.4 in -
Precipitation: 0.330 in    
Historical Graphs
 
 
Tabular Data for January 22, 2022
Time Temperature Dew Point Pressure Wind Wind Speed Wind Gust Humidity Rainfall Rate (Hourly) solar
00:04 36.0 °F 25.0 °F 30.4 in NE 5 mph 6 mph 62% 0.000 in 0.00 W/m2
00:09 36.0 °F 25.0 °F 30.4 in NE 3 mph 4 mph 62% 0.000 in 0.00 W/m2
00:14 36.0 °F 25.0 °F 30.4 in NE 3 mph 3 mph 62% 0.000 in 0.00 W/m2
00:19 36.0 °F 24.0 °F 30.4 in ENE 4 mph 6 mph 62% 0.000 in 0.00 W/m2
00:24 36.0 °F 25.0 °F 30.4 in NE 4 mph 6 mph 63% 0.000 in 0.00 W/m2
00:29 36.0 °F 25.0 °F 30.4 in NE 3 mph 5 mph 63% 0.000 in 0.00 W/m2
00:34 36.0 °F 24.0 °F 30.4 in NE 5 mph 5 mph 63% 0.000 in 0.00 W/m2
00:39 36.0 °F 24.0 °F 30.4 in NE 5 mph 6 mph 63% 0.000 in 0.00 W/m2
00:44 35.0 °F 24.0 °F 30.4 in ENE 5 mph 6 mph 63% 0.000 in 0.00 W/m2
00:49 35.0 °F 24.0 °F 30.4 in ENE 7 mph 7 mph 63% 0.000 in 0.00 W/m2
00:54 35.0 °F 24.0 °F 30.4 in NE 3 mph 3 mph 63% 0.000 in 0.00 W/m2
00:59 35.0 °F 24.0 °F 30.4 in NE 2 mph 2 mph 64% 0.000 in 0.00 W/m2
01:04 35.0 °F 24.0 °F 30.4 in NE 2 mph 2 mph 64% 0.000 in 0.00 W/m2
01:09 35.0 °F 24.0 °F 30.4 in NE 1 mph 1 mph 64% 0.000 in 0.00 W/m2
01:14 35.0 °F 24.0 °F 30.4 in NE 3 mph 3 mph 64% 0.000 in 0.00 W/m2
01:19 35.0 °F 24.0 °F 30.4 in NE 2 mph 2 mph 64% 0.000 in 0.00 W/m2
01:24 35.0 °F 24.0 °F 30.4 in NE 3 mph 3 mph 65% 0.000 in 0.00 W/m2
01:29 35.0 °F 24.0 °F 30.4 in NE 4 mph 4 mph 65% 0.000 in 0.00 W/m2
01:34 34.0 °F 24.0 °F 30.4 in NNE 4 mph 4 mph 65% 0.000 in 0.00 W/m2
01:39 34.0 °F 24.0 °F 30.4 in NNE 2 mph 3 mph 66% 0.000 in 0.00 W/m2
01:44 34.0 °F 24.0 °F 30.4 in NNE 2 mph 2 mph 66% 0.000 in 0.00 W/m2
01:49 34.0 °F 24.0 °F 30.4 in NE 3 mph 3 mph 66% 0.000 in 0.00 W/m2
01:54 34.0 °F 24.0 °F 30.4 in ENE 2 mph 2 mph 66% 0.000 in 0.00 W/m2
01:59 34.0 °F 24.0 °F 30.4 in NE 3 mph 3 mph 67% 0.000 in 0.00 W/m2
02:04 33.0 °F 24.0 °F 30.4 in NE 2 mph 2 mph 67% 0.000 in 0.00 W/m2
02:09 33.0 °F 24.0 °F 30.4 in NE 2 mph 2 mph 67% 0.000 in 0.00 W/m2
02:14 33.0 °F 24.0 °F 30.4 in NE 2 mph 2 mph 68% 0.000 in 0.00 W/m2
02:19 33.0 °F 24.0 °F 30.4 in NE 2 mph 3 mph 68% 0.000 in 0.00 W/m2
02:24 33.0 °F 24.0 °F 30.4 in NE 2 mph 2 mph 68% 0.000 in 0.00 W/m2
02:29 33.0 °F 24.0 °F 30.5 in NE 3 mph 3 mph 68% 0.000 in 0.00 W/m2
02:34 33.0 °F 24.0 °F 30.5 in NE 3 mph 3 mph 69% 0.000 in 0.00 W/m2
02:39 33.0 °F 24.0 °F 30.5 in NE 3 mph 3 mph 69% 0.000 in 0.00 W/m2
02:44 33.0 °F 23.0 °F 30.5 in NE 1 mph 2 mph 68% 0.000 in 0.00 W/m2
02:49 32.0 °F 23.0 °F 30.5 in NE 3 mph 3 mph 69% 0.000 in 0.00 W/m2
02:54 32.0 °F 23.0 °F 30.4 in NE 3 mph 3 mph 69% 0.000 in 0.00 W/m2
02:59 32.0 °F 23.0 °F 30.5 in NNE 5 mph 5 mph 69% 0.000 in 0.00 W/m2
03:04 32.0 °F 23.0 °F 30.5 in NNE 4 mph 5 mph 69% 0.000 in 0.00 W/m2
03:09 32.0 °F 23.0 °F 30.5 in NNE 5 mph 5 mph 69% 0.000 in 0.00 W/m2
03:14 32.0 °F 23.0 °F 30.5 in NNE 4 mph 5 mph 69% 0.000 in 0.00 W/m2
03:19 32.0 °F 23.0 °F 30.5 in NE 3 mph 4 mph 69% 0.000 in 0.00 W/m2
03:24 32.0 °F 23.0 °F 30.5 in NE 4 mph 4 mph 69% 0.000 in 0.00 W/m2
03:29 32.0 °F 23.0 °F 30.5 in NNE 4 mph 5 mph 69% 0.000 in 0.00 W/m2
03:34 32.0 °F 23.0 °F 30.5 in NNE 5 mph 5 mph 69% 0.000 in 0.00 W/m2
03:39 32.0 °F 23.0 °F 30.5 in NNE 5 mph 6 mph 69% 0.000 in 0.00 W/m2
03:44 32.0 °F 23.0 °F 30.5 in NNE 5 mph 6 mph 69% 0.000 in 0.00 W/m2
03:49 32.0 °F 23.0 °F 30.5 in NNE 7 mph 7 mph 69% 0.000 in 0.00 W/m2
03:54 32.0 °F 23.0 °F 30.5 in NNE 5 mph 5 mph 69% 0.000 in 0.00 W/m2
03:59 32.0 °F 23.0 °F 30.5 in NNE 7 mph 8 mph 69% 0.000 in 0.00 W/m2
04:04 32.0 °F 23.0 °F 30.5 in NNE 5 mph 7 mph 69% 0.000 in 0.00 W/m2
04:09 32.0 °F 23.0 °F 30.5 in NNE 6 mph 6 mph 69% 0.000 in 0.00 W/m2
04:14 32.0 °F 23.0 °F 30.5 in NE 5 mph 6 mph 69% 0.000 in 0.00 W/m2
04:19 32.0 °F 23.0 °F 30.5 in NNE 4 mph 5 mph 69% 0.000 in 0.00 W/m2
04:24 32.0 °F 23.0 °F 30.5 in NE 4 mph 4 mph 69% 0.000 in 0.00 W/m2
04:29 32.0 °F 23.0 °F 30.5 in NNE 4 mph 5 mph 69% 0.000 in 0.00 W/m2
04:34 32.0 °F 23.0 °F 30.5 in NNE 5 mph 5 mph 69% 0.000 in 0.00 W/m2
04:39 32.0 °F 23.0 °F 30.5 in NNE 4 mph 4 mph 69% 0.000 in 0.00 W/m2
04:44 32.0 °F 23.0 °F 30.5 in NNE 5 mph 5 mph 69% 0.000 in 0.00 W/m2
04:49 32.0 °F 23.0 °F 30.5 in NNE 5 mph 5 mph 70% 0.000 in 0.00 W/m2
04:54 31.0 °F 23.0 °F 30.5 in NNE 7 mph 8 mph 70% 0.000 in 0.00 W/m2
04:59 31.0 °F 23.0 °F 30.5 in NNE 4 mph 5 mph 70% 0.000 in 0.00 W/m2
05:04 31.0 °F 23.0 °F 30.5 in NNE 8 mph 8 mph 70% 0.000 in 0.00 W/m2
05:09 31.0 °F 22.0 °F 30.5 in NNE 6 mph 8 mph 70% 0.000 in 0.00 W/m2
05:14 31.0 °F 22.0 °F 30.5 in NNE 4 mph 6 mph 70% 0.000 in 0.00 W/m2
05:19 31.0 °F 22.0 °F 30.5 in NNE 4 mph 4 mph 70% 0.000 in 0.00 W/m2
05:24 31.0 °F 22.0 °F 30.5 in NE 5 mph 6 mph 70% 0.000 in 0.00 W/m2
05:29 31.0 °F 22.0 °F 30.5 in NE 6 mph 6 mph 70% 0.000 in 0.00 W/m2
05:34 31.0 °F 22.0 °F 30.5 in NE 4 mph 5 mph 70% 0.000 in 0.00 W/m2
05:39 31.0 °F 22.0 °F 30.5 in NNE 4 mph 5 mph 70% 0.000 in 0.00 W/m2
05:44 31.0 °F 22.0 °F 30.5 in NNE 4 mph 4 mph 70% 0.000 in 0.00 W/m2
05:49 31.0 °F 22.0 °F 30.5 in NE 4 mph 5 mph 71% 0.000 in 0.00 W/m2
05:54 31.0 °F 22.0 °F 30.5 in NE 4 mph 4 mph 71% 0.000 in 0.00 W/m2
05:59 31.0 °F 22.0 °F 30.5 in NNE 5 mph 5 mph 71% 0.000 in 0.00 W/m2
06:04 30.0 °F 22.0 °F 30.5 in NNE 6 mph 6 mph 71% 0.000 in 0.00 W/m2
06:09 30.0 °F 22.0 °F 30.5 in NNE 5 mph 5 mph 71% 0.000 in 0.00 W/m2
06:14 30.0 °F 22.0 °F 30.5 in NNE 6 mph 6 mph 71% 0.000 in 0.00 W/m2
06:19 30.0 °F 22.0 °F 30.5 in NE 6 mph 7 mph 71% 0.000 in 0.00 W/m2
06:24 30.0 °F 22.0 °F 30.5 in NE 5 mph 7 mph 71% 0.000 in 0.00 W/m2
06:29 30.0 °F 22.0 °F 30.5 in NE 7 mph 7 mph 71% 0.000 in 0.00 W/m2
06:34 30.0 °F 22.0 °F 30.5 in NNE 6 mph 8 mph 71% 0.000 in 0.00 W/m2
06:39 30.0 °F 22.0 °F 30.5 in NNE 5 mph 8 mph 71% 0.000 in 0.00 W/m2
06:44 30.0 °F 22.0 °F 30.5 in NNE 7 mph 8 mph 71% 0.000 in 0.00 W/m2
06:49 30.0 °F 22.0 °F 30.5 in NNE 8 mph 8 mph 71% 0.000 in 0.00 W/m2
06:54 30.0 °F 22.0 °F 30.5 in NE 5 mph 5 mph 71% 0.000 in 0.00 W/m2
06:59 30.0 °F 22.0 °F 30.5 in NE 4 mph 6 mph 71% 0.000 in 0.00 W/m2
07:04 30.0 °F 22.0 °F 30.5 in NE 3 mph 4 mph 71% 0.000 in 0.00 W/m2
07:09 30.0 °F 22.0 °F 30.5 in NE 5 mph 5 mph 71% 0.000 in 0.00 W/m2
07:14 30.0 °F 22.0 °F 30.5 in NE 3 mph 4 mph 71% 0.000 in 0.00 W/m2
07:19 30.0 °F 22.0 °F 30.5 in NE 3 mph 4 mph 71% 0.000 in 0.00 W/m2
07:24 30.0 °F 22.0 °F 30.5 in NE 2 mph 3 mph 72% 0.000 in 7.00 W/m2
07:29 30.0 °F 22.0 °F 30.5 in NE 3 mph 4 mph 72% 0.000 in 9.00 W/m2
07:34 30.0 °F 22.0 °F 30.5 in NE 2 mph 3 mph 72% 0.000 in 11.00 W/m2
07:39 30.0 °F 22.0 °F 30.5 in NE 1 mph 2 mph 72% 0.000 in 12.00 W/m2
07:44 30.0 °F 22.0 °F 30.5 in NE 3 mph 3 mph 72% 0.000 in 16.00 W/m2
07:49 30.0 °F 22.0 °F 30.5 in NE 2 mph 3 mph 72% 0.000 in 21.00 W/m2
07:54 30.0 °F 22.0 °F 30.5 in NE 3 mph 3 mph 72% 0.000 in 21.00 W/m2
07:59 30.0 °F 22.0 °F 30.5 in NNE 3 mph 4 mph 72% 0.000 in 21.00 W/m2
08:04 30.0 °F 23.0 °F 30.5 in NE 4 mph 4 mph 73% 0.000 in 39.00 W/m2
08:09 30.0 °F 23.0 °F 30.5 in NNE 4 mph 4 mph 73% 0.000 in 83.00 W/m2
08:14 31.0 °F 23.0 °F 30.5 in NE 4 mph 7 mph 73% 0.000 in 102.00 W/m2
08:19 31.0 °F 23.0 °F 30.5 in NNE 7 mph 7 mph 72% 0.000 in 128.00 W/m2
08:24 32.0 °F 24.0 °F 30.5 in NNE 8 mph 8 mph 72% 0.000 in 93.00 W/m2
08:29 32.0 °F 24.0 °F 30.5 in NNE 8 mph 9 mph 72% 0.000 in 118.00 W/m2
08:34 33.0 °F 24.0 °F 30.5 in NNE 10 mph 10 mph 71% 0.000 in 178.00 W/m2
08:39 33.0 °F 24.0 °F 30.5 in NNE 9 mph 9 mph 70% 0.000 in 93.00 W/m2
08:44 33.0 °F 24.0 °F 30.5 in NNE 9 mph 9 mph 70% 0.000 in 97.00 W/m2
08:49 33.0 °F 24.0 °F 30.5 in NE 8 mph 8 mph 69% 0.000 in 120.00 W/m2
08:54 34.0 °F 24.0 °F 30.5 in NNE 6 mph 6 mph 68% 0.000 in 269.00 W/m2
08:59 34.0 °F 25.0 °F 30.5 in NNE 6 mph 7 mph 68% 0.000 in 269.00 W/m2
09:04 35.0 °F 24.0 °F 30.5 in NNE 9 mph 9 mph 67% 0.000 in 269.00 W/m2
09:09 35.0 °F 25.0 °F 30.5 in NE 7 mph 9 mph 66% 0.100 in 339.00 W/m2
09:14 35.0 °F 25.0 °F 30.5 in ENE 6 mph 11 mph 66% 0.180 in 327.00 W/m2
09:19 36.0 °F 25.0 °F 30.5 in NE 4 mph 7 mph 64% 0.210 in 260.00 W/m2
09:24 36.0 °F 25.0 °F 30.5 in NE 9 mph 9 mph 64% 0.210 in 369.00 W/m2
09:29 36.0 °F 25.0 °F 30.5 in NNE 8 mph 9 mph 63% 0.210 in 404.00 W/m2
09:34 37.0 °F 25.0 °F 30.6 in NNE 9 mph 9 mph 63% 0.210 in 427.00 W/m2
09:39 37.0 °F 25.0 °F 30.6 in NNE 9 mph 9 mph 63% 0.210 in 431.00 W/m2
09:44 37.0 °F 25.0 °F 30.6 in NNE 10 mph 10 mph 62% 0.210 in 422.00 W/m2
09:49 38.0 °F 25.0 °F 30.6 in NE 6 mph 6 mph 61% 0.220 in 327.00 W/m2
09:54 38.0 °F 25.0 °F 30.6 in NE 7 mph 7 mph 61% 0.220 in 485.00 W/m2
09:59 38.0 °F 25.0 °F 30.6 in NNE 6 mph 6 mph 59% 0.220 in 497.00 W/m2
10:04 39.0 °F 25.0 °F 30.6 in ENE 6 mph 6 mph 59% 0.220 in 497.00 W/m2
10:09 39.0 °F 25.0 °F 30.6 in ENE 7 mph 8 mph 58% 0.220 in 517.00 W/m2
10:14 39.0 °F 26.0 °F 30.6 in NNE 8 mph 9 mph 58% 0.130 in 496.00 W/m2
10:19 40.0 °F 26.0 °F 30.6 in NE 8 mph 10 mph 58% 0.050 in 475.00 W/m2
10:24 40.0 °F 26.0 °F 30.6 in NNE 8 mph 10 mph 57% 0.030 in 417.00 W/m2
10:29 40.0 °F 26.0 °F 30.6 in NE 6 mph 9 mph 56% 0.030 in 573.00 W/m2
10:34 41.0 °F 26.0 °F 30.6 in NNE 6 mph 10 mph 56% 0.030 in 584.00 W/m2
10:39 41.0 °F 26.0 °F 30.6 in NE 10 mph 10 mph 56% 0.030 in 589.00 W/m2
10:44 42.0 °F 26.0 °F 30.6 in North 12 mph 12 mph 55% 0.040 in 469.00 W/m2
10:49 43.0 °F 26.0 °F 30.6 in NNE 9 mph 10 mph 53% 0.040 in 612.00 W/m2
10:54 44.0 °F 26.0 °F 30.6 in NNE 9 mph 10 mph 51% 0.030 in 624.00 W/m2
10:59 44.0 °F 26.0 °F 30.6 in NNE 9 mph 10 mph 49% 0.040 in 631.00 W/m2
11:04 43.0 °F 24.0 °F 30.6 in ENE 6 mph 10 mph 47% 0.040 in 642.00 W/m2
11:09 44.0 °F 26.0 °F 30.6 in NNE 5 mph 8 mph 49% 0.040 in 650.00 W/m2
11:14 45.0 °F 26.0 °F 30.6 in NE 7 mph 8 mph 48% 0.030 in 659.00 W/m2
11:19 45.0 °F 25.0 °F 30.6 in ENE 6 mph 7 mph 45% 0.040 in 668.00 W/m2
11:24 45.0 °F 25.0 °F 30.5 in NE 8 mph 8 mph 45% 0.040 in 675.00 W/m2
11:29 46.0 °F 26.0 °F 30.5 in North 9 mph 10 mph 46% 0.040 in 679.00 W/m2
11:34 46.0 °F 26.0 °F 30.5 in NNE 10 mph 10 mph 46% 0.040 in 684.00 W/m2
11:39 46.0 °F 26.0 °F 30.5 in NNE 10 mph 11 mph 45% 0.040 in 687.00 W/m2
11:44 47.0 °F 26.0 °F 30.5 in NNE 8 mph 10 mph 44% 0.040 in 693.00 W/m2
11:49 48.0 °F 26.0 °F 30.5 in NNE 11 mph 11 mph 44% 0.040 in 700.00 W/m2
11:54 48.0 °F 26.0 °F 30.5 in ENE 8 mph 10 mph 43% 0.040 in 703.00 W/m2
11:59 47.0 °F 25.0 °F 30.5 in ENE 9 mph 9 mph 42% 0.050 in 707.00 W/m2
12:04 48.0 °F 26.0 °F 30.5 in NNE 10 mph 11 mph 42% 0.040 in 707.00 W/m2
12:09 49.0 °F 25.0 °F 30.5 in NNE 10 mph 11 mph 40% 0.040 in 712.00 W/m2
12:14 49.0 °F 26.0 °F 30.5 in North 8 mph 11 mph 41% 0.050 in 719.00 W/m2
12:19 49.0 °F 26.0 °F 30.5 in North 8 mph 9 mph 40% 0.050 in 719.00 W/m2
12:24 50.0 °F 27.0 °F 30.5 in North 13 mph 13 mph 40% 0.040 in 717.00 W/m2
12:29 50.0 °F 27.0 °F 30.5 in North 13 mph 13 mph 40% 0.050 in 722.00 W/m2
12:34 50.0 °F 26.0 °F 30.5 in NNE 9 mph 13 mph 38% 0.040 in 722.00 W/m2
12:39 51.0 °F 26.0 °F 30.5 in NNE 9 mph 11 mph 39% 0.040 in 722.00 W/m2
12:44 51.0 °F 26.0 °F 30.5 in NNE 12 mph 12 mph 38% 0.040 in 722.00 W/m2
12:49 51.0 °F 26.0 °F 30.5 in NE 7 mph 7 mph 38% 0.040 in 687.00 W/m2
12:54 51.0 °F 27.0 °F 30.5 in NNE 6 mph 6 mph 38% 0.040 in 626.00 W/m2
12:59 52.0 °F 26.0 °F 30.5 in North 13 mph 13 mph 37% 0.040 in 719.00 W/m2
13:04 52.0 °F 27.0 °F 30.5 in North 11 mph 13 mph 37% 0.030 in 680.00 W/m2
13:09 52.0 °F 27.0 °F 30.5 in North 12 mph 12 mph 37% 0.030 in 715.00 W/m2
13:14 53.0 °F 27.0 °F 30.5 in North 10 mph 13 mph 37% 0.030 in 710.00 W/m2
13:19 53.0 °F 27.0 °F 30.5 in North 10 mph 12 mph 37% 0.020 in 693.00 W/m2
13:24 53.0 °F 26.0 °F 30.5 in NNW 8 mph 10 mph 36% 0.020 in 703.00 W/m2
13:29 53.0 °F 27.0 °F 30.5 in NNE 11 mph 12 mph 37% 0.020 in 698.00 W/m2
13:34 53.0 °F 27.0 °F 30.5 in NNW 9 mph 12 mph 36% 0.010 in 694.00 W/m2
13:39 53.0 °F 27.0 °F 30.4 in North 12 mph 12 mph 36% 0.010 in 686.00 W/m2
13:44 54.0 °F 28.0 °F 30.4 in North 11 mph 12 mph 36% 0.010 in 684.00 W/m2
13:49 54.0 °F 28.0 °F 30.4 in NNE 13 mph 14 mph 36% 0.010 in 675.00 W/m2
13:54 54.0 °F 27.0 °F 30.4 in NNE 12 mph 12 mph 35% 0.000 in 668.00 W/m2
13:59 54.0 °F 27.0 °F 30.4 in NNE 11 mph 12 mph 35% 0.000 in 663.00 W/m2
14:04 55.0 °F 27.0 °F 30.4 in NNE 10 mph 12 mph 35% 0.000 in 656.00 W/m2
14:09 54.0 °F 27.0 °F 30.4 in NNE 10 mph 11 mph 34% 0.000 in 649.00 W/m2
14:14 55.0 °F 27.0 °F 30.4 in NNE 11 mph 13 mph 34% 0.000 in 640.00 W/m2
14:19 55.0 °F 27.0 °F 30.4 in NNE 12 mph 13 mph 34% 0.000 in 631.00 W/m2
14:24 55.0 °F 28.0 °F 30.4 in North 10 mph 12 mph 34% 0.000 in 621.00 W/m2
14:29 55.0 °F 27.0 °F 30.4 in North 7 mph 10 mph 33% 0.000 in 613.00 W/m2
14:34 55.0 °F 28.0 °F 30.4 in North 10 mph 10 mph 35% 0.000 in 599.00 W/m2
14:39 55.0 °F 28.0 °F 30.4 in North 13 mph 13 mph 34% 0.000 in 591.00 W/m2
14:44 55.0 °F 27.0 °F 30.4 in North 15 mph 16 mph 34% 0.000 in 580.00 W/m2
14:49 55.0 °F 27.0 °F 30.4 in NNE 12 mph 15 mph 34% 0.000 in 568.00 W/m2
14:54 56.0 °F 28.0 °F 30.4 in NNE 11 mph 11 mph 34% 0.000 in 550.00 W/m2
14:59 56.0 °F 28.0 °F 30.4 in North 15 mph 15 mph 34% 0.000 in 541.00 W/m2
15:04 56.0 °F 28.0 °F 30.4 in NNE 10 mph 11 mph 34% 0.000 in 531.00 W/m2
15:09 56.0 °F 28.0 °F 30.4 in NNE 13 mph 13 mph 34% 0.000 in 519.00 W/m2
15:14 56.0 °F 29.0 °F 30.4 in NNE 8 mph 9 mph 35% 0.000 in 504.00 W/m2
15:19 56.0 °F 28.0 °F 30.4 in NNE 11 mph 12 mph 34% 0.000 in 492.00 W/m2
15:24 56.0 °F 28.0 °F 30.4 in NNE 9 mph 12 mph 34% 0.000 in 478.00 W/m2
15:29 56.0 °F 28.0 °F 30.4 in North 11 mph 14 mph 34% 0.000 in 462.00 W/m2
15:34 55.0 °F 28.0 °F 30.4 in NE 10 mph 11 mph 34% 0.000 in 450.00 W/m2
15:39 55.0 °F 27.0 °F 30.4 in NNE 11 mph 11 mph 34% 0.000 in 434.00 W/m2
15:44 55.0 °F 28.0 °F 30.4 in NNE 8 mph 10 mph 35% 0.000 in 417.00 W/m2
15:49 55.0 °F 28.0 °F 30.4 in NNE 8 mph 10 mph 35% 0.000 in 401.00 W/m2
15:54 55.0 °F 28.0 °F 30.4 in NNE 10 mph 11 mph 35% 0.000 in 388.00 W/m2
15:59 55.0 °F 28.0 °F 30.4 in NNE 6 mph 11 mph 35% 0.000 in 369.00 W/m2
16:04 55.0 °F 28.0 °F 30.4 in NNE 11 mph 11 mph 35% 0.000 in 352.00 W/m2
16:09 55.0 °F 28.0 °F 30.4 in NNE 8 mph 9 mph 35% 0.000 in 334.00 W/m2
16:14 54.0 °F 28.0 °F 30.4 in NE 9 mph 9 mph 37% 0.000 in 320.00 W/m2
16:19 54.0 °F 28.0 °F 30.4 in NNE 10 mph 10 mph 37% 0.000 in 302.00 W/m2
16:24 54.0 °F 28.0 °F 30.4 in NNE 10 mph 11 mph 37% 0.000 in 285.00 W/m2
16:29 54.0 °F 28.0 °F 30.4 in NNE 7 mph 11 mph 37% 0.000 in 190.00 W/m2
16:34 54.0 °F 28.0 °F 30.4 in NE 6 mph 7 mph 37% 0.000 in 128.00 W/m2
16:39 54.0 °F 28.0 °F 30.4 in NNE 5 mph 7 mph 37% 0.000 in 77.00 W/m2
16:44 54.0 °F 28.0 °F 30.4 in NNE 8 mph 8 mph 37% 0.000 in 54.00 W/m2
16:49 54.0 °F 29.0 °F 30.4 in NNE 8 mph 8 mph 38% 0.000 in 40.00 W/m2
16:54 54.0 °F 28.0 °F 30.4 in NNE 7 mph 8 mph 37% 0.000 in 32.00 W/m2
16:59 53.0 °F 28.0 °F 30.4 in ENE 5 mph 8 mph 37% 0.000 in 25.00 W/m2
17:04 53.0 °F 28.0 °F 30.4 in NNE 5 mph 6 mph 38% 0.000 in 37.00 W/m2
17:09 53.0 °F 29.0 °F 30.4 in NNE 5 mph 7 mph 39% 0.000 in 47.00 W/m2
17:14 53.0 °F 29.0 °F 30.4 in NNE 5 mph 5 mph 39% 0.000 in 30.00 W/m2
17:19 53.0 °F 29.0 °F 30.4 in NNE 4 mph 5 mph 40% 0.000 in 33.00 W/m2
17:24 53.0 °F 29.0 °F 30.4 in NE 5 mph 6 mph 40% 0.000 in 37.00 W/m2
17:29 52.0 °F 29.0 °F 30.4 in NE 5 mph 6 mph 40% 0.000 in 14.00 W/m2
17:34 52.0 °F 29.0 °F 30.4 in NE 3 mph 4 mph 41% 0.000 in 12.00 W/m2
17:39 52.0 °F 29.0 °F 30.4 in NE 4 mph 4 mph 41% 0.000 in 11.00 W/m2
17:44 51.0 °F 29.0 °F 30.4 in NE 5 mph 5 mph 42% 0.000 in 9.00 W/m2
17:49 51.0 °F 29.0 °F 30.4 in NE 3 mph 3 mph 42% 0.000 in 5.00 W/m2
17:54 51.0 °F 29.0 °F 30.4 in NE 3 mph 3 mph 43% 0.000 in 0.00 W/m2
17:59 51.0 °F 29.0 °F 30.4 in NE 2 mph 2 mph 43% 0.000 in 0.00 W/m2
18:04 50.0 °F 29.0 °F 30.4 in ENE 2 mph 2 mph 44% 0.000 in 0.00 W/m2
18:09 50.0 °F 29.0 °F 30.4 in ENE 2 mph 2 mph 45% 0.000 in 0.00 W/m2
18:14 50.0 °F 29.0 °F 30.4 in ENE 2 mph 2 mph 45% 0.000 in 0.00 W/m2
18:19 50.0 °F 30.0 °F 30.4 in ENE 2 mph 3 mph 46% 0.000 in 0.00 W/m2
18:24 49.0 °F 30.0 °F 30.4 in ENE 3 mph 3 mph 47% 0.000 in 0.00 W/m2
18:29 49.0 °F 29.0 °F 30.4 in NE 2 mph 2 mph 47% 0.000 in 0.00 W/m2
18:34 48.0 °F 29.0 °F 30.4 in NE 2 mph 3 mph 48% 0.000 in 0.00 W/m2
18:39 48.0 °F 29.0 °F 30.4 in NE 2 mph 2 mph 48% 0.000 in 0.00 W/m2
18:44 48.0 °F 29.0 °F 30.4 in NE 3 mph 3 mph 49% 0.000 in 0.00 W/m2
18:49 47.0 °F 29.0 °F 30.4 in NE 3 mph 4 mph 49% 0.000 in 0.00 W/m2
18:54 47.0 °F 29.0 °F 30.4 in NE 3 mph 3 mph 50% 0.000 in 0.00 W/m2
18:59 47.0 °F 29.0 °F 30.4 in NE 3 mph 4 mph 50% 0.000 in 0.00 W/m2
19:04 46.0 °F 29.0 °F 30.4 in NE 3 mph 3 mph 50% 0.000 in 0.00 W/m2
19:09 46.0 °F 29.0 °F 30.4 in NE 3 mph 3 mph 51% 0.000 in 0.00 W/m2
19:14 46.0 °F 29.0 °F 30.4 in NE 3 mph 3 mph 51% 0.000 in 0.00 W/m2
19:19 46.0 °F 29.0 °F 30.4 in NNE 3 mph 3 mph 51% 0.000 in 0.00 W/m2
19:24 46.0 °F 29.0 °F 30.4 in NNE 2 mph 3 mph 52% 0.000 in 0.00 W/m2
19:29 45.0 °F 29.0 °F 30.4 in NNE 2 mph 3 mph 52% 0.000 in 0.00 W/m2
19:34 45.0 °F 29.0 °F 30.4 in NNE 3 mph 3 mph 52% 0.000 in 0.00 W/m2
19:39 45.0 °F 29.0 °F 30.4 in NE 3 mph 3 mph 53% 0.000 in 0.00 W/m2
19:44 45.0 °F 29.0 °F 30.4 in NNE 3 mph 3 mph 53% 0.000 in 0.00 W/m2
19:49 45.0 °F 29.0 °F 30.4 in NNE 2 mph 2 mph 53% 0.000 in 0.00 W/m2
19:54 45.0 °F 29.0 °F 30.4 in NE 2 mph 2 mph 53% 0.000 in 0.00 W/m2
19:59 44.0 °F 28.0 °F 30.4 in NE 2 mph 2 mph 53% 0.000 in 0.00 W/m2
20:04 44.0 °F 29.0 °F 30.4 in NE 2 mph 2 mph 54% 0.000 in 0.00 W/m2
20:09 44.0 °F 29.0 °F 30.4 in NNE 2 mph 2 mph 54% 0.000 in 0.00 W/m2
20:14 44.0 °F 28.0 °F 30.4 in NNE 2 mph 2 mph 54% 0.000 in 0.00 W/m2
20:19 44.0 °F 29.0 °F 30.4 in NNE 2 mph 2 mph 55% 0.000 in 0.00 W/m2
20:24 44.0 °F 29.0 °F 30.4 in NNE 2 mph 2 mph 55% 0.000 in 0.00 W/m2
20:29 44.0 °F 28.0 °F 30.4 in NNE 2 mph 2 mph 55% 0.000 in 0.00 W/m2
20:34 43.0 °F 28.0 °F 30.4 in NNE 2 mph 2 mph 55% 0.000 in 0.00 W/m2
20:39 43.0 °F 29.0 °F 30.4 in NNE 2 mph 2 mph 56% 0.000 in 0.00 W/m2
20:44 43.0 °F 28.0 °F 30.4 in NNE 2 mph 2 mph 56% 0.000 in 0.00 W/m2
20:49 43.0 °F 29.0 °F 30.4 in NNE 3 mph 3 mph 57% 0.000 in 0.00 W/m2
20:54 43.0 °F 29.0 °F 30.4 in NNE 2 mph 2 mph 58% 0.000 in 0.00 W/m2
20:59 42.0 °F 29.0 °F 30.4 in NNE 2 mph 2 mph 58% 0.000 in 0.00 W/m2
21:04 42.0 °F 29.0 °F 30.4 in NNE 3 mph 3 mph 59% 0.000 in 0.00 W/m2
21:09 42.0 °F 29.0 °F 30.4 in NNE 2 mph 2 mph 59% 0.000 in 0.00 W/m2
21:14 42.0 °F 29.0 °F 30.4 in NNE 2 mph 2 mph 59% 0.000 in 0.00 W/m2
21:19 42.0 °F 29.0 °F 30.4 in NNE 2 mph 2 mph 60% 0.000 in 0.00 W/m2
21:24 42.0 °F 29.0 °F 30.4 in NNE 2 mph 2 mph 60% 0.000 in 0.00 W/m2
21:29 41.0 °F 29.0 °F 30.4 in NNE 2 mph 2 mph 60% 0.000 in 0.00 W/m2
21:34 41.0 °F 28.0 °F 30.4 in NNE 1 mph 1 mph 60% 0.000 in 0.00 W/m2
21:39 41.0 °F 28.0 °F 30.4 in NNE 2 mph 2 mph 60% 0.000 in 0.00 W/m2
21:44 41.0 °F 28.0 °F 30.4 in NNE 1 mph 2 mph 60% 0.000 in 0.00 W/m2
21:49 41.0 °F 28.0 °F 30.4 in Calm   1 mph 60% 0.000 in 0.00 W/m2
21:54 41.0 °F 28.0 °F 30.4 in NNE 1 mph 1 mph 60% 0.000 in 0.00 W/m2
21:59 41.0 °F 28.0 °F 30.4 in Calm   1 mph 60% 0.000 in 0.00 W/m2
22:04 41.0 °F 28.0 °F 30.4 in Calm   1 mph 61% 0.000 in 0.00 W/m2
22:09 40.0 °F 28.0 °F 30.4 in NNE 1 mph 1 mph 61% 0.000 in 0.00 W/m2
22:14 40.0 °F 28.0 °F 30.4 in NNE 2 mph 2 mph 62% 0.000 in 0.00 W/m2
22:19 40.0 °F 28.0 °F 30.4 in NNE 2 mph 2 mph 62% 0.000 in 0.00 W/m2
22:24 40.0 °F 28.0 °F 30.4 in NNE 2 mph 2 mph 62% 0.000 in 0.00 W/m2
22:29 40.0 °F 28.0 °F 30.4 in NNE 1 mph 2 mph 63% 0.000 in 0.00 W/m2
22:34 40.0 °F 28.0 °F 30.4 in NNE 1 mph 1 mph 63% 0.000 in 0.00 W/m2
22:39 40.0 °F 28.0 °F 30.4 in NNE 1 mph 1 mph 63% 0.000 in 0.00 W/m2
22:44 39.0 °F 28.0 °F 30.4 in Calm     63% 0.000 in 0.00 W/m2
22:49 39.0 °F 28.0 °F 30.4 in Calm     63% 0.000 in 0.00 W/m2
22:54 39.0 °F 28.0 °F 30.4 in NNE 1 mph 1 mph 63% 0.000 in 0.00 W/m2
22:59 39.0 °F 28.0 °F 30.4 in NNE 1 mph 1 mph 64% 0.000 in 0.00 W/m2
23:04 39.0 °F 28.0 °F 30.4 in NNE 2 mph 2 mph 65% 0.000 in 0.00 W/m2
23:09 39.0 °F 28.0 °F 30.4 in NNE 1 mph 2 mph 65% 0.000 in 0.00 W/m2
23:14 39.0 °F 28.0 °F 30.4 in NNE 1 mph 1 mph 66% 0.000 in 0.00 W/m2
23:19 38.0 °F 28.0 °F 30.4 in Calm     65% 0.000 in 0.00 W/m2
23:24 38.0 °F 27.0 °F 30.4 in Calm     65% 0.000 in 0.00 W/m2
23:29 38.0 °F 28.0 °F 30.4 in Calm     66% 0.000 in 0.00 W/m2
23:34 38.0 °F 28.0 °F 30.4 in NNE 1 mph 1 mph 66% 0.000 in 0.00 W/m2
23:39 38.0 °F 28.0 °F 30.4 in Calm   1 mph 67% 0.000 in 0.00 W/m2
23:44 37.0 °F 28.0 °F 30.4 in Calm     67% 0.000 in 0.00 W/m2
23:49 37.0 °F 27.0 °F 30.4 in Calm     67% 0.000 in 0.00 W/m2
23:54 37.0 °F 27.0 °F 30.4 in Calm     68% 0.000 in 0.00 W/m2
23:59 37.0 °F 27.0 °F 30.4 in Calm     68% 0.000 in 0.00 W/m2
Villages of Bridgestone, Spring, TX USA
Compliments of Weather Underground - 4 mb